Time;durP1;ratioP1;P1;durP2;ratioP2;P2;SDS_P1;SDS_P2;PMS_P1;PMS_P2;Temp;Humidity;BMP_temperature;BMP_pressure;BME280_temperature;BME280_humidity;BME280_pressure;Samples;Min_cycle;Max_cycle;Signal;HPM_P1;HPM_P2
2021/12/25 00:05:16;;;;;;;3.10;1.47;;;-4.30;99.90;;;;;;10491438;28;20237;-76
2021/12/25 00:10:38;;;;;;;3.53;1.40;;;-4.40;99.90;;;;;;10520505;28;20195;-76
2021/12/25 00:16:00;;;;;;;1.63;1.10;;;-4.40;99.90;;;;;;10519307;28;20246;-79
2021/12/25 00:21:23;;;;;;;4.20;1.60;;;-4.40;99.90;;;;;;10520142;28;20201;-74
2021/12/25 00:26:58;;;;;;;5.73;2.10;;;-4.50;99.90;;;;;;10519292;28;20191;-75
2021/12/25 00:37:42;;;;;;;15.30;1.93;;;-4.50;99.90;;;;;;10519052;28;20214;-75
2021/12/25 00:43:04;;;;;;;4.47;1.67;;;-4.60;99.90;;;;;;10528390;28;20264;-76
2021/12/25 00:48:27;;;;;;;2.53;1.20;;;-4.60;99.90;;;;;;10494793;28;20200;-75
2021/12/25 00:53:49;;;;;;;3.03;1.20;;;-4.70;99.90;;;;;;10528088;28;20197;-78
2021/12/25 00:59:11;;;;;;;2.47;1.30;;;-4.70;99.90;;;;;;10541121;28;20221;-74
2021/12/25 01:04:33;;;;;;;2.53;1.30;;;-4.50;99.90;;;;;;10540967;28;20233;-74
2021/12/25 01:09:55;;;;;;;2.07;1.47;;;-4.60;99.90;;;;;;10512206;28;20487;-76
2021/12/25 01:15:24;;;;;;;5.93;1.50;;;-4.60;99.90;;;;;;10526437;28;20262;-74
2021/12/25 01:38:22;;;;;;;7.50;2.43;;;-4.70;99.90;;;;;;10008657;29;20231;-76
2021/12/25 01:50:27;;;;;;;12.03;2.50;;;-4.90;99.90;;;;;;9968429;29;20295;-78
2021/12/25 01:55:49;;;;;;;8.37;2.70;;;-4.90;99.90;;;;;;9956023;29;20261;-76
2021/12/25 02:01:11;;;;;;;5.93;2.30;;;-4.80;99.90;;;;;;9967890;29;20410;-78
2021/12/25 02:06:33;;;;;;;4.63;2.30;;;-4.90;99.90;;;;;;9903147;30;20528;-77
2021/12/25 02:11:56;;;;;;;5.40;2.07;;;-4.70;99.90;;;;;;9962078;29;20243;-78
2021/12/25 02:22:42;;;;;;;5.70;2.43;;;-4.80;99.90;;;;;;10007300;29;20196;-75
2021/12/25 02:28:05;;;;;;;6.00;1.77;;;-4.90;99.90;;;;;;9989924;29;20244;-78
2021/12/25 02:33:28;;;;;;;7.20;2.40;;;-4.80;99.90;;;;;;10005233;29;20199;-76
2021/12/25 02:38:50;;;;;;;8.20;2.17;;;-4.80;99.90;;;;;;10007517;29;20427;-74
2021/12/25 02:44:19;;;;;;;7.63;2.23;;;-4.70;99.90;;;;;;10006542;29;20497;-75
2021/12/25 02:49:51;;;;;;;3.97;1.70;;;-4.70;99.90;;;;;;10006514;29;20391;-75
2021/12/25 02:55:13;;;;;;;5.83;1.93;;;-4.70;99.90;;;;;;10006156;29;20537;-74
2021/12/25 03:00:52;;;;;;;3.50;1.90;;;-4.70;99.90;;;;;;9965346;29;20437;-75
2021/12/25 03:06:14;;;;;;;4.60;1.90;;;-4.70;99.90;;;;;;9983519;29;20204;-74
2021/12/25 03:11:37;;;;;;;3.63;1.77;;;-4.80;99.90;;;;;;10005229;29;20257;-74
2021/12/25 03:16:59;;;;;;;5.40;1.60;;;-4.70;99.90;;;;;;9992455;29;20238;-75
2021/12/25 03:22:23;;;;;;;3.57;1.70;;;-4.60;99.90;;;;;;9992708;29;20256;-74
2021/12/25 03:27:46;;;;;;;8.40;2.47;;;-4.70;99.90;;;;;;10004915;29;20206;-77
2021/12/25 03:33:13;;;;;;;4.83;1.77;;;-4.80;99.90;;;;;;10005323;29;20501;-75
2021/12/25 03:38:36;;;;;;;6.03;2.20;;;-4.80;99.90;;;;;;10004181;29;20299;-75
2021/12/25 03:43:58;;;;;;;5.13;2.40;;;-4.70;99.90;;;;;;10005158;29;20286;-74
2021/12/25 03:49:34;;;;;;;5.90;1.97;;;-4.50;99.90;;;;;;10004542;29;20214;-77
2021/12/25 04:00:37;;;;;;;5.80;2.43;;;-4.30;99.90;;;;;;9991186;29;20196;-76
2021/12/25 04:06:08;;;;;;;7.27;2.30;;;-4.20;99.90;;;;;;10004184;29;20206;-75
2021/12/25 04:11:34;;;;;;;7.37;2.60;;;-4.10;99.90;;;;;;9991381;29;20203;-77
2021/12/25 04:16:57;;;;;;;4.23;1.80;;;-4.00;99.90;;;;;;10005920;29;20230;-77
2021/12/25 04:22:28;;;;;;;6.63;2.47;;;-4.00;99.90;;;;;;10002978;29;20410;-77
2021/12/25 04:27:51;;;;;;;3.43;1.80;;;-3.90;99.90;;;;;;9990324;29;20204;-77
2021/12/25 05:07:10;;;;;;;2.57;1.00;;;-4.30;99.90;;;;;;10002108;29;20203;-77
2021/12/25 05:12:32;;;;;;;4.57;1.40;;;-4.30;99.90;;;;;;10002681;29;20223;-77
2021/12/25 05:17:54;;;;;;;2.93;1.07;;;-4.30;99.90;;;;;;10002214;29;20294;-77
2021/12/25 05:23:16;;;;;;;3.60;1.43;;;-4.30;99.90;;;;;;10002424;29;20204;-77
2021/12/25 05:28:43;;;;;;;5.00;1.83;;;-4.30;99.90;;;;;;10002370;29;20239;-77
2021/12/25 05:34:07;;;;;;;5.73;1.83;;;-4.30;99.90;;;;;;10005436;29;20398;-77
2021/12/25 05:39:51;;;;;;;4.67;1.17;;;-4.40;99.90;;;;;;10009546;29;20240;-76
2021/12/25 05:45:16;;;;;;;1.37;1.10;;;-4.40;99.90;;;;;;10008919;29;20245;-77
2021/12/25 05:50:53;;;;;;;3.40;1.30;;;-4.40;99.90;;;;;;10008168;29;20272;-77
2021/12/25 05:56:26;;;;;;;2.63;1.10;;;-4.30;99.90;;;;;;10008694;29;20265;-76
2021/12/25 06:02:14;;;;;;;2.10;0.90;;;-4.30;99.90;;;;;;10008925;29;20247;-77
2021/12/25 06:07:44;;;;;;;2.03;1.30;;;-4.30;99.90;;;;;;10034521;29;20275;-78
2021/12/25 06:13:10;;;;;;;2.47;1.17;;;-4.20;99.90;;;;;;10015852;29;20217;-77
2021/12/25 06:18:33;;;;;;;3.80;1.50;;;-4.30;99.90;;;;;;10004640;29;20320;-76
2021/12/25 06:24:05;;;;;;;2.83;1.33;;;-4.30;99.90;;;;;;10004900;29;20216;-77
2021/12/25 06:29:47;;;;;;;3.93;1.20;;;-4.10;99.90;;;;;;9993379;29;20280;-78
2021/12/25 06:35:16;;;;;;;4.23;1.23;;;-4.10;99.90;;;;;;10001946;29;20261;-78
2021/12/25 06:41:01;;;;;;;7.57;2.53;;;-4.20;99.90;;;;;;10002590;29;20214;-78
2021/12/25 06:46:24;;;;;;;7.23;2.10;;;-4.20;99.90;;;;;;10005968;29;20374;-75
2021/12/25 06:51:46;;;;;;;6.67;2.40;;;-4.30;99.90;;;;;;9971397;29;20499;-76
2021/12/25 06:57:32;;;;;;;6.20;1.93;;;-4.30;99.90;;;;;;10041324;29;20235;-77
2021/12/25 07:02:55;;;;;;;9.13;2.90;;;-4.30;99.90;;;;;;10041377;29;20212;-77
2021/12/25 07:08:37;;;;;;;6.23;2.20;;;-4.30;99.90;;;;;;10030992;29;20330;-77
2021/12/25 07:14:34;;;;;;;5.97;2.10;;;-4.30;99.90;;;;;;10041037;29;20233;-77
2021/12/25 07:20:20;;;;;;;5.53;1.63;;;-4.30;99.90;;;;;;9976106;29;20268;-74
2021/12/25 07:25:55;;;;;;;7.13;2.30;;;-4.20;99.90;;;;;;9952367;29;20222;-77
2021/12/25 07:31:38;;;;;;;5.07;1.80;;;-4.20;99.90;;;;;;9943943;29;20252;-76
2021/12/25 07:37:01;;;;;;;12.07;3.97;;;-4.20;99.90;;;;;;9878710;30;20259;-78
2021/12/25 07:42:23;;;;;;;9.77;3.93;;;-4.00;99.90;;;;;;9853654;30;20226;-78
2021/12/25 07:48:02;;;;;;;7.47;3.80;;;-4.00;99.90;;;;;;9856683;30;20259;-78
2021/12/25 07:53:24;;;;;;;4.63;2.40;;;-4.00;99.90;;;;;;9929653;29;20281;-77
2021/12/25 07:58:46;;;;;;;7.23;2.60;;;-4.00;99.90;;;;;;10003991;29;20247;-76
2021/12/25 08:04:11;;;;;;;10.10;4.30;;;-3.90;99.90;;;;;;10005303;29;20200;-77
2021/12/25 08:09:33;;;;;;;9.07;3.47;;;-4.00;99.90;;;;;;10003772;29;20205;-77
2021/12/25 08:14:55;;;;;;;7.93;3.20;;;-3.80;99.90;;;;;;10004005;29;20223;-77
2021/12/25 08:20:18;;;;;;;7.37;3.33;;;-3.60;99.90;;;;;;10004575;29;20259;-77
2021/12/25 08:26:00;;;;;;;5.33;2.30;;;-3.30;99.90;;;;;;9993061;29;20283;-77
2021/12/25 08:31:54;;;;;;;3.63;2.43;;;-3.20;99.90;;;;;;10037318;29;20413;-75
2021/12/25 08:37:35;;;;;;;9.77;5.53;;;-3.20;99.90;;;;;;10019788;29;20446;-75
2021/12/25 08:43:01;;;;;;;22.27;9.23;;;-3.00;99.90;;;;;;10000624;29;20212;-74
2021/12/25 08:48:26;;;;;;;17.83;8.53;;;-2.50;99.90;;;;;;10008827;29;20212;-74
2021/12/25 08:53:48;;;;;;;14.13;5.90;;;-2.30;99.90;;;;;;10038273;29;20224;-78
2021/12/25 08:59:10;;;;;;;13.43;5.73;;;-2.30;99.90;;;;;;10023679;29;20537;-77
2021/12/25 09:04:34;;;;;;;13.43;6.70;;;-2.40;99.90;;;;;;9992440;29;20595;-76
2021/12/25 09:09:57;;;;;;;20.30;9.97;;;-2.40;99.90;;;;;;10004431;29;20208;-76
2021/12/25 09:15:19;;;;;;;13.53;6.63;;;-1.90;99.90;;;;;;10009739;29;20273;-77
2021/12/25 09:20:42;;;;;;;11.80;5.23;;;-1.70;99.90;;;;;;10009187;29;20216;-76
2021/12/25 09:26:04;;;;;;;10.20;4.73;;;-1.80;99.90;;;;;;10009071;29;20233;-77
2021/12/25 09:31:26;;;;;;;13.00;5.03;;;-1.90;99.90;;;;;;10008284;29;20250;-75
2021/12/25 09:36:48;;;;;;;9.63;4.60;;;-1.80;99.90;;;;;;10009854;29;20306;-75
2021/12/25 09:42:11;;;;;;;12.27;5.37;;;-1.40;99.90;;;;;;10008722;29;20392;-77
2021/12/25 09:47:33;;;;;;;14.00;6.33;;;-1.20;99.90;;;;;;10008586;29;20198;-76
2021/12/25 09:52:55;;;;;;;13.97;6.60;;;-0.80;99.90;;;;;;9972013;29;20207;-77
2021/12/25 09:58:17;;;;;;;11.10;5.63;;;-0.70;99.90;;;;;;9974416;29;20583;-77
2021/12/25 10:03:48;;;;;;;9.93;4.73;;;-0.60;99.90;;;;;;10009023;29;20396;-76
2021/12/25 10:09:20;;;;;;;9.50;5.00;;;-0.60;99.90;;;;;;10007814;29;20206;-75
2021/12/25 10:14:51;;;;;;;9.47;4.20;;;-0.60;99.90;;;;;;10007626;29;20498;-77
2021/12/25 10:20:20;;;;;;;10.80;4.47;;;-0.40;99.90;;;;;;10007129;29;20234;-76
2021/12/25 10:25:51;;;;;;;20.20;6.57;;;-0.30;99.90;;;;;;10008067;29;20197;-76
2021/12/25 10:31:16;;;;;;;34.43;10.43;;;-0.20;99.90;;;;;;9985191;29;20252;-75
2021/12/25 10:36:38;;;;;;;30.67;10.20;;;-0.10;99.90;;;;;;9970597;29;20548;-75
2021/12/25 10:42:10;;;;;;;18.97;6.43;;;0.20;99.90;;;;;;10006582;29;20210;-77
2021/12/25 10:47:33;;;;;;;10.30;3.73;;;0.40;99.90;;;;;;10007779;29;20287;-76
2021/12/25 10:52:55;;;;;;;8.77;3.27;;;0.80;99.90;;;;;;10006514;29;20199;-75
2021/12/25 10:58:20;;;;;;;8.73;3.37;;;1.10;99.90;;;;;;10006869;29;20235;-77
2021/12/25 11:03:45;;;;;;;6.47;2.77;;;1.20;99.90;;;;;;10007290;29;20203;-80
2021/12/25 11:09:08;;;;;;;9.13;3.90;;;0.80;99.90;;;;;;10005905;29;20204;-77
2021/12/25 11:14:29;;;;;;;7.93;3.93;;;0.50;99.90;;;;;;10005635;29;20211;-79
2021/12/25 11:20:02;;;;;;;13.97;6.33;;;0.10;99.90;;;;;;10011937;29;20236;-77
2021/12/25 11:25:28;;;;;;;5.70;3.97;;;-0.30;99.90;;;;;;10008706;29;20210;-79
2021/12/25 11:30:50;;;;;;;5.83;2.73;;;-0.70;99.90;;;;;;10005011;29;20275;-77
2021/12/25 11:36:13;;;;;;;11.17;3.43;;;-0.80;99.90;;;;;;10005698;29;20204;-79
2021/12/25 11:41:37;;;;;;;6.40;2.47;;;-1.00;99.90;;;;;;10005863;29;20273;-79
2021/12/25 11:46:59;;;;;;;5.90;2.27;;;-1.20;99.90;;;;;;10005595;29;20387;-77
2021/12/25 11:52:25;;;;;;;8.17;2.80;;;-1.30;99.90;;;;;;10006310;29;20476;-79
2021/12/25 12:03:54;;;;;;;5.33;2.63;;;-1.40;99.90;;;;;;10011093;29;20208;-76
2021/12/25 12:09:27;;;;;;;5.73;2.33;;;-1.50;99.90;;;;;;10011335;29;20275;-77
2021/12/25 12:15:15;;;;;;;3.43;1.83;;;-1.40;99.90;;;;;;10010498;29;20283;-75
2021/12/25 12:21:07;;;;;;;5.03;2.17;;;-1.20;99.90;;;;;;10007497;29;20308;-76
2021/12/25 12:26:53;;;;;;;5.57;2.20;;;-0.90;99.90;;;;;;10008522;29;20280;-75
2021/12/25 12:32:18;;;;;;;6.07;1.90;;;-0.80;99.90;;;;;;9994788;29;20239;-76
2021/12/25 12:37:43;;;;;;;7.17;2.73;;;-0.80;99.90;;;;;;10012054;29;20621;-78
2021/12/25 12:43:05;;;;;;;7.90;2.70;;;-0.70;99.90;;;;;;10008687;29;20359;-78
2021/12/25 12:48:27;;;;;;;6.63;2.33;;;-0.70;99.90;;;;;;10004316;29;20257;-76
2021/12/25 12:53:49;;;;;;;6.47;2.80;;;-0.60;99.90;;;;;;10002630;29;20236;-78
2021/12/25 12:59:11;;;;;;;5.67;2.87;;;-0.60;99.90;;;;;;10002775;29;20236;-77
2021/12/25 13:04:49;;;;;;;6.67;2.83;;;-0.70;99.90;;;;;;9989720;29;20280;-77
2021/12/25 13:11:04;;;;;;;4.67;2.40;;;-0.90;99.90;;;;;;10002373;29;20288;-77
2021/12/25 13:16:05;;;;;;;5.17;2.50;;;-1.00;99.90;;;;;;10002370;29;20207;-78
2021/12/25 13:21:31;;;;;;;7.73;3.03;;;-1.00;99.90;;;;;;10002499;29;20513;-78
2021/12/25 13:26:55;;;;;;;4.90;2.87;;;-1.10;99.90;;;;;;10003514;29;20206;-76
2021/12/25 13:32:25;;;;;;;8.20;3.50;;;-1.30;99.90;;;;;;9976622;29;20283;-77
2021/12/25 13:37:58;;;;;;;6.67;3.23;;;-1.30;99.90;;;;;;9982840;29;20302;-77
2021/12/25 13:43:21;;;;;;;7.40;2.40;;;-1.50;99.90;;;;;;10009244;29;20489;-79
2021/12/25 13:48:43;;;;;;;8.77;3.83;;;-1.70;99.90;;;;;;10006145;29;20211;-76
2021/12/25 13:54:05;;;;;;;21.63;7.90;;;-1.80;99.90;;;;;;10013289;29;20200;-79
2021/12/25 13:59:28;;;;;;;19.10;6.40;;;-2.00;99.90;;;;;;10002526;29;20226;-78
2021/12/25 14:04:52;;;;;;;14.13;4.13;;;-2.10;99.90;;;;;;10012029;29;20197;-79
2021/12/25 14:10:23;;;;;;;11.57;4.60;;;-2.10;99.90;;;;;;10014402;29;20210;-78
2021/12/25 14:15:51;;;;;;;30.13;10.17;;;-2.30;99.90;;;;;;10000524;29;20211;-77
2021/12/25 14:21:24;;;;;;;24.80;9.17;;;-2.40;99.90;;;;;;10017208;29;20247;-77
2021/12/25 14:26:49;;;;;;;16.53;7.77;;;-2.60;99.90;;;;;;10010666;29;20204;-78
2021/12/25 14:32:29;;;;;;;11.33;4.97;;;-2.60;99.90;;;;;;10025582;29;20232;-77
2021/12/25 14:37:57;;;;;;;9.83;3.60;;;-2.60;99.90;;;;;;10007265;29;20257;-79
2021/12/25 14:43:37;;;;;;;5.97;3.50;;;-2.60;99.90;;;;;;10017918;29;20517;-77
2021/12/25 14:49:05;;;;;;;8.83;3.90;;;-2.60;99.90;;;;;;10017355;29;20271;-78
2021/12/25 14:54:29;;;;;;;7.93;3.17;;;-2.60;99.90;;;;;;10018254;29;20245;-77
2021/12/25 14:59:51;;;;;;;8.20;2.80;;;-2.70;99.90;;;;;;10019341;29;20288;-74
2021/12/25 15:05:15;;;;;;;6.70;2.67;;;-2.60;99.90;;;;;;10016522;29;20491;-76
2021/12/25 15:10:37;;;;;;;5.00;2.23;;;-2.70;99.90;;;;;;10020606;29;20196;-78
2021/12/25 15:16:01;;;;;;;4.63;2.80;;;-2.80;99.90;;;;;;10002052;29;20212;-76
2021/12/25 15:21:23;;;;;;;5.43;2.50;;;-2.80;99.90;;;;;;10019176;29;20234;-77
2021/12/25 15:26:57;;;;;;;10.10;3.97;;;-2.80;99.90;;;;;;10014117;29;20498;-76
2021/12/25 15:32:19;;;;;;;10.13;4.97;;;-2.90;99.90;;;;;;10007931;29;20303;-76
2021/12/25 15:37:48;;;;;;;11.97;5.57;;;-3.00;99.90;;;;;;10011640;29;20223;-76
2021/12/25 15:43:10;;;;;;;13.60;5.40;;;-3.00;99.90;;;;;;10009363;29;20205;-79
2021/12/25 15:48:34;;;;;;;17.57;5.83;;;-3.10;99.90;;;;;;10005807;29;20224;-75
2021/12/25 15:53:57;;;;;;;14.90;6.80;;;-3.20;99.90;;;;;;9996296;29;20266;-78
2021/12/25 15:59:19;;;;;;;17.83;7.57;;;-3.30;99.90;;;;;;10014348;29;20238;-76
2021/12/25 16:04:42;;;;;;;18.27;8.67;;;-3.40;99.90;;;;;;10011442;29;20399;-75
2021/12/25 16:10:04;;;;;;;22.00;10.53;;;-3.50;99.90;;;;;;10013426;29;20423;-76
2021/12/25 16:15:26;;;;;;;24.30;9.53;;;-3.60;99.90;;;;;;10004950;29;20200;-75
2021/12/25 16:20:49;;;;;;;23.57;9.47;;;-3.80;99.90;;;;;;10003466;29;20298;-76
2021/12/25 16:26:13;;;;;;;20.03;9.57;;;-3.80;99.90;;;;;;10003898;29;20406;-78
2021/12/25 16:31:37;;;;;;;24.40;9.73;;;-3.70;99.90;;;;;;10004283;29;20239;-79
2021/12/25 16:37:03;;;;;;;31.83;11.10;;;-3.70;99.90;;;;;;10004005;29;20413;-75
2021/12/25 16:42:25;;;;;;;24.33;9.73;;;-3.70;99.90;;;;;;10004691;29;20211;-78
2021/12/25 16:47:47;;;;;;;21.07;9.70;;;-3.80;99.90;;;;;;10010112;29;20261;-79
2021/12/25 16:53:10;;;;;;;25.43;10.73;;;-3.90;99.90;;;;;;9979279;29;20207;-79
2021/12/25 16:58:32;;;;;;;21.40;9.40;;;-4.00;99.90;;;;;;9973292;29;20235;-78
2021/12/25 17:03:54;;;;;;;26.73;11.03;;;-4.10;99.90;;;;;;10004075;29;20382;-77
2021/12/25 17:09:17;;;;;;;27.43;11.20;;;-4.20;99.90;;;;;;10002557;29;20291;-78
2021/12/25 17:14:39;;;;;;;56.50;18.67;;;-4.20;99.90;;;;;;10002875;29;20194;-76
2021/12/25 17:20:01;;;;;;;38.80;15.70;;;-4.30;99.90;;;;;;10002483;29;20303;-78
2021/12/25 17:25:26;;;;;;;30.40;12.50;;;-4.30;99.90;;;;;;10002448;29;20207;-77
2021/12/25 17:30:51;;;;;;;27.77;12.57;;;-4.40;99.90;;;;;;10005629;29;20247;-77
2021/12/25 17:36:17;;;;;;;29.30;12.87;;;-4.30;99.90;;;;;;10009007;29;20210;-75
2021/12/25 17:41:47;;;;;;;22.63;9.37;;;-4.30;99.90;;;;;;10009271;29;20487;-76
2021/12/25 17:47:09;;;;;;;19.57;7.50;;;-4.20;99.90;;;;;;10009551;29;20212;-75
2021/12/25 17:52:31;;;;;;;15.47;6.77;;;-4.20;99.90;;;;;;10008768;29;20253;-77
2021/12/25 17:57:53;;;;;;;15.00;5.30;;;-4.10;99.90;;;;;;10007933;29;20254;-77
2021/12/25 18:03:17;;;;;;;24.07;10.73;;;-4.10;99.90;;;;;;10009086;29;20375;-76
2021/12/25 18:08:40;;;;;;;52.70;19.07;;;-4.10;99.90;;;;;;9995148;29;20204;-77
2021/12/25 18:14:02;;;;;;;60.60;21.33;;;-4.30;99.90;;;;;;9995250;29;20204;-76
2021/12/25 18:19:24;;;;;;;55.23;20.43;;;-4.40;99.90;;;;;;9994454;29;20234;-77
2021/12/25 18:24:46;;;;;;;32.53;12.70;;;-4.50;99.90;;;;;;10007506;29;20203;-75
2021/12/25 18:30:12;;;;;;;13.27;7.57;;;-4.60;99.90;;;;;;10000006;29;20253;-78
2021/12/25 18:35:35;;;;;;;17.33;8.27;;;-4.60;99.90;;;;;;9982464;29;20274;-77
2021/12/25 18:40:58;;;;;;;17.60;7.73;;;-4.60;99.90;;;;;;9999883;29;20292;-78
2021/12/25 18:46:19;;;;;;;22.70;9.40;;;-4.60;99.90;;;;;;9994145;29;20230;-75
2021/12/25 18:51:43;;;;;;;23.53;9.27;;;-4.70;99.90;;;;;;10007255;29;20210;-76
2021/12/25 18:57:05;;;;;;;17.27;8.20;;;-4.80;99.90;;;;;;10007077;29;20238;-77
2021/12/25 19:02:28;;;;;;;9.70;5.70;;;-4.80;99.90;;;;;;10006218;29;20228;-77
2021/12/25 19:07:50;;;;;;;12.27;5.23;;;-4.80;99.90;;;;;;10006654;29;20508;-76
2021/12/25 19:13:13;;;;;;;10.27;4.30;;;-4.80;99.90;;;;;;10006932;29;20267;-77
2021/12/25 19:18:37;;;;;;;14.70;5.30;;;-4.80;99.90;;;;;;10006461;29;20234;-78
2021/12/25 19:23:59;;;;;;;16.73;5.97;;;-4.70;99.90;;;;;;10006670;29;20229;-77
2021/12/25 19:29:21;;;;;;;14.50;6.80;;;-4.80;99.90;;;;;;9997372;29;20270;-77
2021/12/25 19:34:43;;;;;;;18.93;7.03;;;-4.80;99.90;;;;;;9968614;29;20200;-75
2021/12/25 19:40:15;;;;;;;17.57;7.40;;;-4.90;99.90;;;;;;9991364;29;20303;-75
2021/12/25 19:45:40;;;;;;;24.37;10.67;;;-5.00;99.90;;;;;;10005974;29;20267;-78
2021/12/25 19:51:06;;;;;;;27.63;11.50;;;-4.90;99.90;;;;;;10003883;29;20210;-75
2021/12/25 19:56:30;;;;;;;28.70;11.07;;;-4.90;99.90;;;;;;10004903;29;20262;-75
2021/12/25 20:01:55;;;;;;;29.97;11.53;;;-5.10;99.90;;;;;;10004149;29;20265;-74
2021/12/25 20:07:18;;;;;;;20.83;8.30;;;-5.20;99.90;;;;;;10004868;29;20390;-75
2021/12/25 20:12:40;;;;;;;50.77;13.83;;;-5.00;99.90;;;;;;10004232;29;20269;-75
2021/12/25 20:18:02;;;;;;;20.87;8.60;;;-5.00;99.90;;;;;;10003798;29;20226;-78
2021/12/25 20:23:25;;;;;;;15.27;6.10;;;-5.10;99.90;;;;;;10004740;29;20574;-74
2021/12/25 20:28:47;;;;;;;10.17;4.47;;;-5.00;99.90;;;;;;10003134;29;20254;-77
2021/12/25 20:34:10;;;;;;;11.27;5.03;;;-5.00;99.90;;;;;;9990497;29;20247;-78
2021/12/25 20:39:32;;;;;;;11.83;5.47;;;-5.00;99.90;;;;;;10003040;29;20203;-75
2021/12/25 20:50:36;;;;;;;32.00;12.23;;;-5.10;99.90;;;;;;10002996;29;20268;-75
2021/12/25 20:55:59;;;;;;;26.40;10.30;;;-5.00;99.90;;;;;;10002829;29;20198;-77
2021/12/25 21:01:21;;;;;;;22.87;8.80;;;-5.20;99.90;;;;;;10004143;29;20204;-75
2021/12/25 21:06:43;;;;;;;23.53;7.97;;;-5.30;99.90;;;;;;10007920;29;20204;-75
2021/12/25 21:12:07;;;;;;;17.83;7.13;;;-5.30;99.90;;;;;;9997036;29;20235;-76
2021/12/25 21:17:39;;;;;;;19.43;7.20;;;-5.40;99.90;;;;;;10009247;29;20203;-77
2021/12/25 21:23:03;;;;;;;21.67;7.17;;;-5.50;99.90;;;;;;9997423;29;20535;-76
2021/12/25 21:28:26;;;;;;;25.07;7.30;;;-5.60;99.90;;;;;;10010079;29;20311;-75
2021/12/25 21:33:48;;;;;;;17.77;7.47;;;-5.70;99.90;;;;;;10008994;29;20208;-76
2021/12/25 21:39:10;;;;;;;14.67;6.17;;;-5.70;99.90;;;;;;9984202;29;20518;-77
2021/12/25 21:44:32;;;;;;;10.97;5.03;;;-5.60;99.90;;;;;;10009010;29;20213;-78
2021/12/25 21:49:54;;;;;;;13.80;6.73;;;-5.60;99.90;;;;;;10009667;29;20229;-78
2021/12/25 21:55:17;;;;;;;15.13;6.40;;;-5.60;99.90;;;;;;10009438;29;20207;-76
2021/12/25 22:00:42;;;;;;;13.47;6.13;;;-5.70;99.90;;;;;;10008884;29;20217;-78
2021/12/25 22:06:05;;;;;;;12.70;6.40;;;-5.60;99.90;;;;;;10009008;29;20499;-78
2021/12/25 22:11:27;;;;;;;19.07;7.90;;;-5.70;99.90;;;;;;10008919;29;20230;-75
2021/12/25 22:16:49;;;;;;;20.93;8.77;;;-5.70;99.90;;;;;;10007128;29;20287;-75
2021/12/25 22:22:12;;;;;;;22.50;8.63;;;-5.70;99.90;;;;;;10008051;29;20197;-75
2021/12/25 22:27:34;;;;;;;27.90;10.80;;;-5.90;99.90;;;;;;10008520;29;20199;-75
2021/12/25 22:32:57;;;;;;;30.03;10.20;;;-5.90;99.90;;;;;;10008191;29;20237;-78
2021/12/25 22:38:20;;;;;;;29.07;9.03;;;-5.90;99.90;;;;;;10017446;29;20391;-78
2021/12/25 22:43:42;;;;;;;16.07;6.90;;;-5.90;99.90;;;;;;10007071;29;20204;-78
2021/12/25 22:49:04;;;;;;;17.97;7.30;;;-5.80;99.90;;;;;;9994733;29;20228;-76
2021/12/25 22:54:26;;;;;;;13.13;6.10;;;-5.90;99.90;;;;;;10008056;29;20213;-75
2021/12/25 22:59:48;;;;;;;14.37;7.27;;;-5.90;99.90;;;;;;10007467;29;20213;-76
2021/12/25 23:05:13;;;;;;;31.43;10.87;;;-5.90;99.90;;;;;;10008969;29;20224;-78
2021/12/25 23:10:38;;;;;;;30.97;10.73;;;-5.70;99.90;;;;;;10009619;29;20249;-78
2021/12/25 23:16:00;;;;;;;23.17;8.70;;;-5.70;99.90;;;;;;10009313;29;20207;-75
2021/12/25 23:21:24;;;;;;;23.63;8.47;;;-5.60;99.90;;;;;;10008755;29;20206;-75
2021/12/25 23:26:46;;;;;;;19.50;8.43;;;-5.60;99.90;;;;;;9995656;29;20217;-77
2021/12/25 23:32:08;;;;;;;21.63;8.43;;;-5.60;99.90;;;;;;10006513;29;20235;-75
2021/12/25 23:37:31;;;;;;;16.50;7.63;;;-5.70;99.90;;;;;;10006931;29;20272;-75
2021/12/25 23:42:54;;;;;;;15.37;6.90;;;-5.90;99.90;;;;;;10004948;29;20260;-77
2021/12/25 23:48:18;;;;;;;16.20;7.77;;;-5.90;99.90;;;;;;9992188;29;20473;-77
2021/12/25 23:53:42;;;;;;;16.33;6.90;;;-5.80;99.90;;;;;;10004797;29;20275;-78
2021/12/25 23:59:05;;;;;;;14.20;7.00;;;-5.50;99.90;;;;;;10004547;29;20209;-77
